TimeCST,TemperatureF,Dew PointF,Humidity,Sea Level PressureIn,VisibilityMPH,Wind Direction,Wind SpeedMPH,Gust SpeedMPH,PrecipitationIn,Events,Conditions,WindDirDegrees,DateUTC
12:15 AM,30.9,24.6,77,30.03,10.0,NW,15.0,-,N/A,,Clear,320,2011-11-30 06:15:00
12:35 AM,31.1,24.4,76,30.03,10.0,NW,15.0,-,N/A,,Clear,320,2011-11-30 06:35:00
12:55 AM,30.9,24.1,76,30.03,10.0,NW,15.0,-,N/A,,Clear,320,2011-11-30 06:55:00
1:15 AM,30.6,23.9,76,30.03,10.0,NW,12.7,-,N/A,,Clear,320,2011-11-30 07:15:00
1:35 AM,30.2,23.9,77,30.03,10.0,NW,13.8,-,N/A,,Clear,310,2011-11-30 07:35:00
1:55 AM,29.7,23.9,79,30.04,10.0,NW,13.8,-,N/A,,Clear,320,2011-11-30 07:55:00
2:15 AM,30.2,24.8,80,30.04,10.0,NW,13.8,-,N/A,,Clear,320,2011-11-30 08:15:00
2:35 AM,29.3,23.9,80,30.04,10.0,NW,15.0,-,N/A,,Clear,320,2011-11-30 08:35:00
2:55 AM,29.1,23.7,80,30.04,10.0,NW,10.4,-,N/A,,Clear,320,2011-11-30 08:55:00
3:15 AM,28.6,23.2,80,30.04,10.0,NW,9.2,-,N/A,,Clear,320,2011-11-30 09:15:00
3:35 AM,27.3,23.0,84,30.04,10.0,NW,8.1,-,N/A,,Clear,310,2011-11-30 09:35:00
3:55 AM,27.0,22.6,84,30.04,10.0,WNW,6.9,-,N/A,,Clear,300,2011-11-30 09:55:00
4:15 AM,26.6,22.5,84,30.04,10.0,West,5.8,-,N/A,,Clear,280,2011-11-30 10:15:00
4:35 AM,26.2,22.3,85,30.05,10.0,WNW,6.9,-,N/A,,Clear,300,2011-11-30 10:35:00
4:55 AM,26.8,23.0,86,30.06,10.0,WNW,10.4,-,N/A,,Clear,290,2011-11-30 10:55:00
5:15 AM,26.8,22.6,84,30.06,10.0,WNW,8.1,-,N/A,,Clear,300,2011-11-30 11:15:00
5:35 AM,26.6,22.3,84,30.07,10.0,WNW,6.9,-,N/A,,Clear,290,2011-11-30 11:35:00
5:55 AM,26.6,22.3,84,30.07,10.0,WNW,6.9,-,N/A,,Clear,300,2011-11-30 11:55:00
6:15 AM,26.1,21.9,84,30.07,10.0,WNW,5.8,-,N/A,,Clear,290,2011-11-30 12:15:00
6:35 AM,25.7,21.7,85,30.08,10.0,WNW,5.8,-,N/A,,Clear,290,2011-11-30 12:35:00
6:55 AM,25.7,21.2,83,30.09,10.0,WNW,5.8,-,N/A,,Clear,290,2011-11-30 12:55:00
7:15 AM,25.0,21.0,85,30.08,10.0,West,5.8,-,N/A,,Clear,280,2011-11-30 13:15:00
7:35 AM,25.3,21.7,86,30.08,10.0,West,6.9,-,N/A,,Clear,270,2011-11-30 13:35:00
7:55 AM,26.6,22.6,85,30.09,10.0,West,8.1,-,N/A,,Clear,270,2011-11-30 13:55:00
8:15 AM,27.7,22.8,82,30.10,10.0,WNW,8.1,-,N/A,,Clear,290,2011-11-30 14:15:00
8:35 AM,28.8,23.2,80,30.10,10.0,WNW,8.1,-,N/A,,Clear,290,2011-11-30 14:35:00
8:55 AM,30.2,23.9,77,30.11,10.0,WNW,6.9,-,N/A,,Clear,290,2011-11-30 14:55:00
9:15 AM,31.6,24.6,75,30.12,10.0,WNW,6.9,-,N/A,,Clear,290,2011-11-30 15:15:00
9:35 AM,32.0,23.5,71,30.12,10.0,WNW,3.5,-,N/A,,Clear,290,2011-11-30 15:35:00
9:55 AM,32.9,23.7,69,30.12,10.0,WNW,3.5,-,N/A,,Clear,290,2011-11-30 15:55:00
10:15 AM,34.0,25.0,70,30.13,10.0,West,6.9,-,N/A,,Clear,270,2011-11-30 16:15:00
10:35 AM,34.9,24.8,67,30.13,10.0,WNW,5.8,-,N/A,,Clear,290,2011-11-30 16:35:00
10:55 AM,36.5,26.2,66,30.12,10.0,WNW,8.1,-,N/A,,Clear,300,2011-11-30 16:55:00
11:15 AM,37.0,26.1,65,30.12,10.0,West,8.1,-,N/A,,Clear,260,2011-11-30 17:15:00
11:35 AM,37.4,25.2,61,30.10,10.0,West,5.8,-,N/A,,Clear,270,2011-11-30 17:35:00
11:55 AM,38.7,23.0,53,30.08,10.0,WSW,5.8,-,N/A,,Clear,240,2011-11-30 17:55:00
12:15 PM,40.6,19.9,44,30.08,10.0,WSW,5.8,-,N/A,,Clear,250,2011-11-30 18:15:00
12:35 PM,41.5,22.3,46,30.09,10.0,WSW,4.6,-,N/A,,Clear,250,2011-11-30 18:35:00
12:55 PM,41.7,20.3,42,30.09,10.0,West,6.9,-,N/A,,Clear,270,2011-11-30 18:55:00
1:15 PM,42.6,18.9,39,30.08,10.0,SW,3.5,-,N/A,,Clear,230,2011-11-30 19:15:00
1:35 PM,43.0,17.6,36,30.08,10.0,WSW,5.8,-,N/A,,Clear,250,2011-11-30 19:35:00
1:55 PM,43.2,16.5,34,30.07,10.0,SW,5.8,-,N/A,,Clear,230,2011-11-30 19:55:00
2:15 PM,43.9,16.2,33,30.07,10.0,SW,4.6,-,N/A,,Clear,220,2011-11-30 20:15:00
2:35 PM,44.6,14.5,30,30.07,10.0,SW,4.6,-,N/A,,Clear,220,2011-11-30 20:35:00
2:55 PM,43.7,16.9,34,30.08,10.0,SSW,4.6,-,N/A,,Clear,200,2011-11-30 20:55:00
3:15 PM,42.3,22.1,45,30.09,10.0,SW,4.6,-,N/A,,Clear,220,2011-11-30 21:15:00
3:35 PM,42.4,21.9,44,30.09,10.0,SSW,4.6,-,N/A,,Clear,210,2011-11-30 21:35:00
3:55 PM,41.5,22.1,46,30.10,10.0,SSW,6.9,-,N/A,,Clear,210,2011-11-30 21:55:00
4:15 PM,40.3,23.0,50,30.10,10.0,SSW,5.8,-,N/A,,Clear,210,2011-11-30 22:15:00
4:35 PM,39.7,23.5,52,30.10,10.0,SSW,4.6,-,N/A,,Clear,200,2011-11-30 22:35:00
4:55 PM,39.4,24.1,54,30.11,10.0,SSW,4.6,-,N/A,,Clear,200,2011-11-30 22:55:00
5:15 PM,39.2,24.6,56,30.11,10.0,SSW,4.6,-,N/A,,Clear,200,2011-11-30 23:15:00
5:35 PM,39.0,23.4,53,30.11,10.0,SSW,5.8,-,N/A,,Clear,200,2011-11-30 23:35:00
5:55 PM,38.1,24.3,57,30.11,10.0,South,4.6,-,N/A,,Clear,190,2011-11-30 23:55:00
6:15 PM,37.4,25.7,63,30.11,10.0,South,5.8,-,N/A,,Clear,180,2011-12-01 00:15:00
6:35 PM,37.4,25.5,62,30.11,10.0,South,6.9,-,N/A,,Clear,180,2011-12-01 00:35:00
6:55 PM,37.2,25.5,63,30.11,10.0,South,6.9,-,N/A,,Clear,170,2011-12-01 00:55:00
7:15 PM,36.5,27.1,69,30.11,10.0,South,6.9,-,N/A,,Clear,180,2011-12-01 01:15:00
7:35 PM,36.5,26.4,67,30.12,10.0,South,6.9,-,N/A,,Clear,190,2011-12-01 01:35:00
7:55 PM,37.4,26.6,65,30.12,10.0,South,4.6,-,N/A,,Clear,190,2011-12-01 01:55:00
8:15 PM,36.5,26.4,67,30.12,10.0,South,4.6,-,N/A,,Clear,190,2011-12-01 02:15:00
8:35 PM,36.5,26.1,66,30.13,10.0,SSW,5.8,-,N/A,,Clear,210,2011-12-01 02:35:00
8:55 PM,36.3,25.9,66,30.12,10.0,SSW,8.1,-,N/A,,Clear,200,2011-12-01 02:55:00
9:15 PM,36.5,25.3,64,30.13,10.0,SSW,9.2,-,N/A,,Clear,200,2011-12-01 03:15:00
9:35 PM,36.5,25.0,63,30.13,10.0,South,8.1,-,N/A,,Clear,190,2011-12-01 03:35:00
9:55 PM,36.0,25.3,65,30.13,10.0,SSW,6.9,-,N/A,,Clear,210,2011-12-01 03:55:00
10:15 PM,34.7,25.5,69,30.13,10.0,SSW,4.6,-,N/A,,Clear,210,2011-12-01 04:15:00
10:35 PM,34.9,24.8,67,30.14,10.0,SW,5.8,-,N/A,,Clear,220,2011-12-01 04:35:00
10:55 PM,34.0,25.5,71,30.14,10.0,South,4.6,-,N/A,,Clear,190,2011-12-01 04:55:00
11:15 PM,34.0,25.7,72,30.16,10.0,SSW,5.8,-,N/A,,Clear,200,2011-12-01 05:15:00
11:35 PM,33.6,26.2,74,30.17,10.0,SSW,5.8,-,N/A,,Clear,200,2011-12-01 05:35:00
11:55 PM,33.4,26.4,75,30.18,10.0,SSW,6.9,-,N/A,,Clear,200,2011-12-01 05:55:00